Alma, WI

1:49 AM CST on December 04, 2016 (GMT -0600)
Robinson Lake | | Change Station
Active Advisory: Winter Weather Advisory

Elev 696 ft 44.36 °N, 92.00 °W | Updated 27 seconds ago

Light Snow
Light Snow
31.1 °F
Feels Like 27 °F
N
4.0
Wind Variable Wind from SSE

Today
High -- | Low -- °F
--% Chance of Precip.
Yesterday
High -- | Low -- °F
Precip. -- in
Pressure 30.16 in
Visibility 5.0 miles
Clouds Scattered Clouds 1200 ft
Scattered Clouds 2700 ft
Overcast 5000 ft
Windchill 27 °F
Dew Point 28 °F
Humidity 88%
Rainfall 0.00 in
Snow Depth Not available.
7:27 AM 4:28 PM
Waxing Crescent, 20% visible
METAR KONA 040733Z AUTO 13006KT 5SM -SN SCT012 SCT027 OVC050 00/M01 A3016 RMK AO2
Pressure 30.16 in
Visibility 5.0 miles
Clouds Scattered Clouds 1200 ft
Scattered Clouds 2700 ft
Overcast 5000 ft
Windchill 27 °F
Dew Point 28 °F
Humidity 88%
Rainfall 0.00 in
Snow Depth Not available.
7:27 AM 4:28 PM
Waxing Crescent, 20% visible
METAR KONA 040733Z AUTO 13006KT 5SM -SN SCT012 SCT027 OVC050 00/M01 A3016 RMK AO2

10-Day Weather Forecast

Almanac

Astronomy

Dec. 04, 2016 Rise Set
Actual Time
Civil Twilight
Nautical Twilight
Astronomical Twilight
Moon
Length of Visible Light
Length of Day
Tomorrow will be .
, % of the Moon is Illuminated

Today's Extremes

State Highs State Lows

Community

WunderPhotos

Upload Photos

1,955,587 photos uploaded!

WunderBlog® & News

Nearby

Air Quality

  Air Quality AQ Index Pollutant
Not available.

Snow Depth

Station Depth Elevation

Earthquake Activity

City Distance Mag. Time & Date
Minimum magnitude displayed is 2.5.

Coastal Water Temperatures

Place Temperature

Stations

Nearby Weather Stations

Station Location Temp. Windchill Dew Point Humidity Wind Precip. Elev Updated Type
                   

Watches & Warnings

Winter Weather Advisory
Issued: 10:56 PM CST Dec. 3, 2016 – National Weather Service

... Winter Weather Advisory remains in effect until noon CST
Sunday...

* expect snow to continue through the night and then diminish
around noon Sunday.

* The heaviest snowfall rates will occur between 6 am and noon
Sunday.

* Total snow accumulations of 1 to 3 inches are expected.

* Look for reduced visibilities at times.

* Plan on slippery Road conditions.

Precautionary/preparedness actions...

A Winter Weather Advisory means that periods of snow... sleet or
freezing rain will cause travel difficulties. Be prepared for
slippery roads and limited visibilities... and use caution while
driving. The latest Road conditions for the state you are calling
from can be obtained by calling 5 1 1.



04